createdAt,value
2019-01-04T00:01:19.059Z,-0.35
2019-01-04T00:03:49.840Z,-0.42
2019-01-04T00:06:20.673Z,-0.45
2019-01-04T00:08:51.713Z,-0.50
2019-01-04T00:11:22.511Z,-0.49
2019-01-04T00:13:53.393Z,-0.47
2019-01-04T00:16:24.296Z,-0.43
2019-01-04T00:18:55.224Z,-0.45
2019-01-04T00:21:26.098Z,-0.44
2019-01-04T00:23:56.909Z,-0.45
2019-01-04T00:26:27.704Z,-0.42
2019-01-04T00:28:58.682Z,-0.37
2019-01-04T00:31:29.504Z,-0.52
2019-01-04T00:34:00.376Z,-0.54
2019-01-04T00:36:31.212Z,-0.58
2019-01-04T00:39:03.766Z,-0.62
2019-01-04T00:41:34.679Z,-0.71
2019-01-04T00:44:05.545Z,-0.72
2019-01-04T00:46:36.308Z,-0.79
2019-01-04T00:49:07.070Z,-0.84
2019-01-04T00:51:37.854Z,-0.88
2019-01-04T00:54:08.613Z,-0.92
2019-01-04T00:57:07.281Z,-0.96
2019-01-04T01:00:15.700Z,-0.91
2019-01-04T01:03:05.732Z,-0.89
2019-01-04T01:05:58.911Z,-0.98
2019-01-04T01:08:48.232Z,-0.85
2019-01-04T01:11:42.670Z,-0.88
2019-01-04T01:14:49.562Z,-0.92
2019-01-04T01:17:58.183Z,-0.94
2019-01-04T01:20:38.611Z,-0.92
2019-01-04T01:23:46.822Z,-1.04
2019-01-04T01:26:39.318Z,-1.03
2019-01-04T01:29:41.666Z,-0.97
2019-01-04T01:32:45.433Z,-0.98
2019-01-04T01:35:20.022Z,-1.02
2019-01-04T01:38:28.396Z,-0.98
2019-01-04T01:41:27.197Z,-0.90
2019-01-04T01:44:07.425Z,-0.92
2019-01-04T01:46:47.554Z,-0.84
2019-01-04T01:49:43.115Z,-0.86
2019-01-04T01:52:17.691Z,-0.73
2019-01-04T01:54:48.469Z,-0.77
2019-01-04T01:57:19.240Z,-0.76
2019-01-04T01:59:50.011Z,-0.71
2019-01-04T02:02:20.776Z,-0.68
2019-01-04T02:04:51.557Z,-0.68
2019-01-04T02:07:22.311Z,-0.73
2019-01-04T02:09:53.145Z,-0.69
2019-01-04T02:12:23.904Z,-0.78
2019-01-04T02:14:54.680Z,-0.76
2019-01-04T02:17:25.738Z,-0.79
2019-01-04T02:19:56.557Z,-0.78
2019-01-04T02:22:27.322Z,-0.85
2019-01-04T02:24:58.117Z,-0.80
2019-01-04T02:27:28.878Z,-0.77
2019-01-04T02:29:59.673Z,-0.78
2019-01-04T02:32:30.482Z,-0.79
2019-01-04T02:35:01.268Z,-0.80
2019-01-04T02:37:32.027Z,-0.86
2019-01-04T02:40:03.031Z,-0.74
2019-01-04T02:42:33.796Z,-0.81
2019-01-04T02:45:04.894Z,-0.79
2019-01-04T02:47:35.679Z,-0.88
2019-01-04T02:50:06.478Z,-0.75
2019-01-04T02:52:37.244Z,-0.85
2019-01-04T02:55:08.052Z,-0.75
2019-01-04T02:57:38.800Z,-0.75
2019-01-04T03:00:09.699Z,-0.79
2019-01-04T03:02:40.478Z,-0.83
2019-01-04T03:05:11.229Z,-1.04
2019-01-04T03:07:42.006Z,-1.09
2019-01-04T03:10:12.777Z,-1.17
2019-01-04T03:12:43.558Z,-1.11
2019-01-04T03:15:14.392Z,-1.11
2019-01-04T03:17:45.207Z,-1.06
2019-01-04T03:20:15.978Z,-1.09
2019-01-04T03:22:46.755Z,-1.07
2019-01-04T03:25:17.514Z,-1.20
2019-01-04T03:27:48.286Z,-1.29
2019-01-04T03:30:19.072Z,-1.41
2019-01-04T03:32:49.850Z,-1.54
2019-01-04T03:35:20.617Z,-1.52
2019-01-04T03:37:51.387Z,-1.51
2019-01-04T03:40:22.163Z,-1.64
2019-01-04T03:42:52.929Z,-1.77
2019-01-04T03:45:23.699Z,-1.79
2019-01-04T03:47:54.497Z,-1.81
2019-01-04T03:50:25.335Z,-1.85
2019-01-04T03:52:56.112Z,-1.95
2019-01-04T03:55:26.873Z,-2.01
2019-01-04T03:57:57.707Z,-2.05
2019-01-04T04:00:28.466Z,-2.07
2019-01-04T04:02:59.235Z,-2.21
2019-01-04T04:05:30.013Z,-2.20
2019-01-04T04:08:00.796Z,-2.26
2019-01-04T04:10:31.575Z,-2.20
2019-01-04T04:13:02.352Z,-2.10
2019-01-04T04:15:33.120Z,-2.22
2019-01-04T04:18:03.892Z,-2.36
2019-01-04T04:20:34.668Z,-2.43
2019-01-04T04:23:05.496Z,-2.62
2019-01-04T04:25:36.253Z,-2.65
2019-01-04T04:28:07.062Z,-2.61
2019-01-04T04:30:37.830Z,-2.62
2019-01-04T04:33:08.602Z,-2.59
2019-01-04T04:35:39.370Z,-2.59
2019-01-04T04:38:10.437Z,-2.54
2019-01-04T04:40:41.203Z,-2.65
2019-01-04T04:43:13.035Z,-2.64
2019-01-04T04:45:43.821Z,-2.61
2019-01-04T04:48:14.589Z,-2.64
2019-01-04T04:50:45.399Z,-2.61
2019-01-04T04:53:16.189Z,-2.71
2019-01-04T04:55:46.960Z,-2.73
2019-01-04T04:58:17.746Z,-2.73
2019-01-04T05:00:48.585Z,-2.63
2019-01-04T05:03:19.429Z,-2.61
2019-01-04T05:05:50.294Z,-2.65
2019-01-04T05:08:21.058Z,-2.64
2019-01-04T05:10:51.838Z,-2.60
2019-01-04T05:13:22.601Z,-2.50
2019-01-04T05:15:53.384Z,-2.33
2019-01-04T05:18:24.127Z,-2.45
2019-01-04T05:20:54.905Z,-2.41
2019-01-04T05:23:25.667Z,-2.35
2019-01-04T05:25:56.465Z,-2.31
2019-01-04T05:28:27.252Z,-2.17
2019-01-04T05:30:58.041Z,-2.04
2019-01-04T05:33:28.814Z,-2.05
2019-01-04T05:35:59.577Z,-2.11
2019-01-04T05:38:30.350Z,-2.02
2019-01-04T05:41:01.131Z,-2.01
2019-01-04T05:43:31.930Z,-1.94
2019-01-04T05:46:02.701Z,-1.88
2019-01-04T05:48:33.517Z,-1.87
2019-01-04T05:51:04.285Z,-1.83
2019-01-04T05:53:35.051Z,-1.84
2019-01-04T05:56:05.905Z,-1.77
2019-01-04T05:58:36.645Z,-1.63
2019-01-04T06:01:07.440Z,-1.53
2019-01-04T06:03:38.202Z,-1.59
2019-01-04T06:06:08.976Z,-1.55
2019-01-04T06:08:39.745Z,-1.58
2019-01-04T06:11:10.519Z,-1.56
2019-01-04T06:13:41.281Z,-1.43
2019-01-04T06:16:12.140Z,-1.37
2019-01-04T06:18:42.904Z,-1.39
2019-01-04T06:21:13.716Z,-1.30
2019-01-04T06:23:44.475Z,-1.32
2019-01-04T06:26:15.253Z,-1.26
2019-01-04T06:28:46.024Z,-1.22
2019-01-04T06:31:16.845Z,-1.23
2019-01-04T06:33:47.615Z,-1.08
2019-01-04T06:36:18.402Z,-1.05
2019-01-04T06:38:49.156Z,-1.01
2019-01-04T06:41:19.965Z,-1.06
2019-01-04T06:43:50.734Z,-0.95
2019-01-04T06:46:21.500Z,-0.96
2019-01-04T06:48:52.254Z,-0.98
2019-01-04T06:51:27.806Z,-0.95
2019-01-04T06:53:55.700Z,-0.96
2019-01-04T06:56:26.472Z,-0.86
2019-01-04T06:58:57.255Z,-0.82
2019-01-04T07:01:28.024Z,-0.90
2019-01-04T07:03:58.808Z,-0.98
2019-01-04T07:06:29.582Z,-0.95
2019-01-04T07:09:00.354Z,-0.85
2019-01-04T07:11:31.113Z,-0.85
2019-01-04T07:14:01.888Z,-0.86
2019-01-04T07:16:32.662Z,-0.82
2019-01-04T07:19:03.417Z,-0.80
2019-01-04T07:21:34.212Z,-0.77
2019-01-04T07:24:04.986Z,-0.75
2019-01-04T07:26:35.873Z,-0.81
2019-01-04T07:29:06.901Z,-0.70
2019-01-04T07:31:37.659Z,-0.77
2019-01-04T07:34:08.435Z,-0.69
2019-01-04T07:36:39.211Z,-0.73
2019-01-04T07:39:09.992Z,-0.70
2019-01-04T07:41:40.754Z,-0.59
2019-01-04T07:44:11.513Z,-0.55
2019-01-04T07:46:42.332Z,-0.55
2019-01-04T07:49:13.133Z,-0.38
2019-01-04T07:51:43.892Z,-0.44
2019-01-04T07:54:14.666Z,-0.40
2019-01-04T07:56:45.437Z,-0.31
2019-01-04T07:59:16.223Z,-0.33
2019-01-04T08:01:46.989Z,-0.27
2019-01-04T08:04:17.791Z,-0.25
2019-01-04T08:06:48.584Z,-0.23
2019-01-04T08:09:19.342Z,-0.29
2019-01-04T08:11:50.114Z,-0.28
2019-01-04T08:14:20.893Z,-0.28
2019-01-04T08:16:51.653Z,-0.27
2019-01-04T08:19:22.435Z,-0.14
2019-01-04T08:21:53.223Z,-0.23
2019-01-04T08:24:23.993Z,-0.16
2019-01-04T08:26:55.818Z,-0.20
2019-01-04T08:29:26.616Z,-0.08
2019-01-04T08:31:57.381Z,-0.15
2019-01-04T08:34:28.147Z,-0.08
2019-01-04T08:36:58.918Z,-0.09
2019-01-04T08:39:29.681Z,-0.05
2019-01-04T08:42:00.457Z,0.12
2019-01-04T08:44:31.236Z,0.16
2019-01-04T08:47:02.002Z,0.18
2019-01-04T08:49:32.773Z,0.14
2019-01-04T08:52:03.573Z,0.30
2019-01-04T08:54:34.349Z,0.19
2019-01-04T08:57:05.144Z,0.24
2019-01-04T08:59:35.911Z,0.33
2019-01-04T09:02:06.700Z,0.44
2019-01-04T09:04:37.505Z,0.48
2019-01-04T09:07:08.263Z,0.43
2019-01-04T09:09:39.033Z,0.70
2019-01-04T09:12:09.799Z,0.93
2019-01-04T09:14:40.566Z,0.89
2019-01-04T09:17:11.327Z,0.95
2019-01-04T09:19:42.125Z,1.09
2019-01-04T09:22:12.900Z,1.19
2019-01-04T09:24:43.683Z,1.08
2019-01-04T09:27:14.459Z,1.09
2019-01-04T09:29:45.280Z,1.12
2019-01-04T09:32:16.057Z,1.14
2019-01-04T09:34:46.833Z,1.03
2019-01-04T09:37:17.594Z,1.20
2019-01-04T09:39:48.380Z,1.09
2019-01-04T09:42:19.143Z,1.14
2019-01-04T09:44:49.942Z,1.01
2019-01-04T09:47:20.724Z,1.25
2019-01-04T09:49:51.489Z,1.28
2019-01-04T09:52:22.285Z,1.40
2019-01-04T09:54:53.045Z,1.71
2019-01-04T09:57:23.897Z,1.86
2019-01-04T09:59:54.699Z,1.86
2019-01-04T10:02:25.472Z,1.74
2019-01-04T10:04:56.303Z,1.55
2019-01-04T10:07:27.092Z,1.72
2019-01-04T10:09:57.866Z,1.71
2019-01-04T10:12:28.636Z,1.83
2019-01-04T10:14:59.402Z,1.76
2019-01-04T10:17:30.201Z,1.77
2019-01-04T10:20:00.980Z,1.62
2019-01-04T10:22:31.762Z,1.45
2019-01-04T10:25:04.523Z,1.25
2019-01-04T10:27:35.473Z,1.40
2019-01-04T10:30:07.068Z,1.20
2019-01-04T10:32:37.847Z,1.29
2019-01-04T10:35:10.555Z,1.14
2019-01-04T10:37:41.277Z,1.22
2019-01-04T10:40:12.059Z,1.50
2019-01-04T10:42:42.835Z,1.65
2019-01-04T10:45:13.606Z,1.52
2019-01-04T10:47:44.385Z,1.56
2019-01-04T10:50:15.144Z,1.54
2019-01-04T10:52:45.923Z,1.50
2019-01-04T10:55:16.687Z,1.30
2019-01-04T10:57:47.448Z,1.49
2019-01-04T11:00:18.210Z,1.65
2019-01-04T11:02:49.029Z,1.68
2019-01-04T11:05:19.786Z,1.60
2019-01-04T11:07:50.556Z,1.54
2019-01-04T11:10:21.345Z,1.54
2019-01-04T11:12:52.145Z,1.51
2019-01-04T11:15:22.916Z,1.56
2019-01-04T11:17:53.700Z,1.41
2019-01-04T11:20:39.469Z,1.30
2019-01-04T11:23:32.245Z,1.28
2019-01-04T11:26:09.829Z,1.22
2019-01-04T11:28:56.604Z,1.30
2019-01-04T11:31:49.492Z,1.33
2019-01-04T11:34:33.141Z,1.41
2019-01-04T11:37:26.244Z,1.50
2019-01-04T11:40:18.593Z,1.66
2019-01-04T11:43:02.160Z,1.58
2019-01-04T11:45:52.120Z,1.38
2019-01-04T11:48:52.143Z,1.62
2019-01-04T11:51:29.478Z,1.63
2019-01-04T11:54:00.278Z,1.97
2019-01-04T11:56:31.026Z,2.02
2019-01-04T11:59:01.837Z,2.07
2019-01-04T12:01:32.591Z,1.99
2019-01-04T12:04:03.362Z,1.90
2019-01-04T12:06:34.166Z,1.88
2019-01-04T12:09:05.646Z,1.99
2019-01-04T12:11:36.437Z,1.89
2019-01-04T12:14:07.234Z,2.00
2019-01-04T12:16:37.998Z,2.25
2019-01-04T12:19:08.776Z,2.03
2019-01-04T12:21:39.580Z,1.94
2019-01-04T12:24:10.392Z,2.20
2019-01-04T12:26:41.168Z,1.95
2019-01-04T12:29:12.088Z,1.76
2019-01-04T12:31:42.884Z,1.70
2019-01-04T12:34:16.758Z,1.82
2019-01-04T12:36:46.746Z,1.79
2019-01-04T12:39:17.527Z,1.72
2019-01-04T12:41:48.295Z,1.96
2019-01-04T12:44:19.085Z,1.79
2019-01-04T12:46:49.925Z,1.61
2019-01-04T12:49:20.724Z,1.73
2019-01-04T12:51:51.505Z,1.85
2019-01-04T12:54:22.264Z,1.94
2019-01-04T12:56:53.042Z,2.22
2019-01-04T12:59:23.801Z,2.09
2019-01-04T13:01:54.653Z,1.71
2019-01-04T13:04:26.804Z,1.80
2019-01-04T13:06:57.631Z,1.93
2019-01-04T13:09:28.469Z,2.02
2019-01-04T13:11:59.251Z,1.84
2019-01-04T13:14:30.052Z,1.88
2019-01-04T13:17:00.843Z,1.85
2019-01-04T13:19:31.592Z,1.92
2019-01-04T13:22:02.468Z,1.88
2019-01-04T13:24:33.240Z,1.75
2019-01-04T13:27:04.006Z,1.75
2019-01-04T13:29:35.025Z,1.60
2019-01-04T13:32:05.807Z,1.44
2019-01-04T13:34:36.600Z,1.25
2019-01-04T13:37:07.429Z,1.31
2019-01-04T13:39:38.169Z,1.18
2019-01-04T13:42:09.071Z,1.18
2019-01-04T13:44:39.828Z,1.26
2019-01-04T13:47:10.678Z,1.28
2019-01-04T13:49:42.304Z,1.40
2019-01-04T13:52:13.139Z,1.34
2019-01-04T13:54:43.936Z,1.38
2019-01-04T13:57:14.880Z,1.27
2019-01-04T13:59:45.727Z,1.26
2019-01-04T14:02:16.604Z,1.31
2019-01-04T14:04:47.375Z,1.25
2019-01-04T14:07:18.141Z,1.31
2019-01-04T14:09:48.920Z,1.24
2019-01-04T14:12:19.693Z,1.19
2019-01-04T14:14:50.483Z,1.16
2019-01-04T14:17:21.242Z,1.01
2019-01-04T14:19:52.104Z,0.94
2019-01-04T14:22:22.917Z,0.86
2019-01-04T14:24:53.778Z,0.96
2019-01-04T14:27:24.573Z,1.02
2019-01-04T14:29:55.350Z,0.50
2019-01-04T14:32:26.162Z,0.92
2019-01-04T14:34:56.934Z,0.89
2019-01-04T14:37:27.757Z,0.78
2019-01-04T14:39:58.517Z,0.83
2019-01-04T14:42:29.347Z,0.79
2019-01-04T14:45:00.186Z,0.79
2019-01-04T14:47:31.032Z,0.81
2019-01-04T14:50:04.654Z,0.69
2019-01-04T14:52:35.424Z,0.68
2019-01-04T14:55:08.376Z,0.65
2019-01-04T14:57:39.146Z,0.67
2019-01-04T15:00:10.719Z,0.57
2019-01-04T15:02:41.478Z,0.61
2019-01-04T15:05:12.248Z,0.54
2019-01-04T15:07:43.131Z,0.58
2019-01-04T15:10:13.899Z,0.58
2019-01-04T15:12:44.682Z,0.58
2019-01-04T15:15:15.531Z,0.64
2019-01-04T15:17:46.300Z,0.66
2019-01-04T15:20:17.062Z,0.63
2019-01-04T15:22:47.943Z,0.56
2019-01-04T15:25:18.809Z,0.54
2019-01-04T15:27:49.680Z,0.58
2019-01-04T15:30:21.529Z,0.60
2019-01-04T15:32:52.298Z,0.59
2019-01-04T15:35:23.076Z,0.63
2019-01-04T15:37:53.894Z,0.62
2019-01-04T15:40:24.677Z,0.56
2019-01-04T15:42:55.447Z,0.64
2019-01-04T15:45:26.225Z,0.57
2019-01-04T15:47:57.010Z,0.61
2019-01-04T15:50:27.870Z,0.63
2019-01-04T15:52:58.647Z,0.62
2019-01-04T15:55:29.490Z,0.62
2019-01-04T15:58:01.275Z,0.63
2019-01-04T16:00:32.078Z,0.61
2019-01-04T16:03:02.839Z,0.60
2019-01-04T16:05:33.706Z,0.64
2019-01-04T16:08:04.485Z,0.54
2019-01-04T16:10:35.276Z,0.56
2019-01-04T16:13:06.110Z,0.49
2019-01-04T16:15:36.950Z,0.51
2019-01-04T16:18:07.733Z,0.50
2019-01-04T16:20:38.518Z,0.50
2019-01-04T16:23:09.387Z,0.53
2019-01-04T16:25:40.211Z,0.51
2019-01-04T16:28:11.018Z,0.52
2019-01-04T16:30:41.814Z,0.51
2019-01-04T16:33:14.574Z,0.54
2019-01-04T16:35:45.390Z,0.49
2019-01-04T16:38:16.164Z,0.54
2019-01-04T16:40:47.995Z,0.57
2019-01-04T16:43:18.750Z,0.58
2019-01-04T16:45:49.574Z,0.57
2019-01-04T16:48:24.928Z,0.59
2019-01-04T16:50:55.765Z,0.58
2019-01-04T16:53:26.518Z,0.61
2019-01-04T16:55:57.312Z,0.64
2019-01-04T16:58:28.498Z,0.64
2019-01-04T17:00:59.292Z,0.70
2019-01-04T17:03:30.051Z,0.72
2019-01-04T17:06:00.807Z,0.66
2019-01-04T17:08:31.586Z,0.71
2019-01-04T17:11:02.617Z,0.68
2019-01-04T17:13:33.397Z,0.67
2019-01-04T17:16:04.185Z,0.69
2019-01-04T17:18:34.969Z,0.71
2019-01-04T17:21:05.757Z,0.66
2019-01-04T17:23:36.544Z,0.69
2019-01-04T17:26:07.348Z,0.67
2019-01-04T17:28:38.139Z,0.66
2019-01-04T17:31:08.918Z,0.64
2019-01-04T17:33:39.684Z,0.71
2019-01-04T17:36:10.470Z,0.67
2019-01-04T17:38:41.247Z,0.72
2019-01-04T17:41:12.020Z,0.73
2019-01-04T17:43:42.804Z,0.66
2019-01-04T17:46:13.571Z,0.70
2019-01-04T17:48:44.378Z,0.66
2019-01-04T17:51:15.141Z,0.77
2019-01-04T17:53:45.918Z,0.81
2019-01-04T17:56:17.361Z,0.77
2019-01-04T17:58:48.199Z,0.74
2019-01-04T18:01:18.966Z,0.78
2019-01-04T18:03:49.728Z,0.82
2019-01-04T18:06:20.502Z,0.83
2019-01-04T18:08:51.294Z,0.85
2019-01-04T18:11:22.071Z,0.91
2019-01-04T18:13:52.840Z,0.97
2019-01-04T18:16:23.605Z,0.96
2019-01-04T18:18:54.406Z,1.00
2019-01-04T18:21:25.148Z,0.96
2019-01-04T18:23:55.949Z,1.02
2019-01-04T18:26:26.725Z,1.04
2019-01-04T18:28:57.487Z,1.04
2019-01-04T18:31:28.257Z,1.06
2019-01-04T18:33:59.032Z,0.99
2019-01-04T18:36:29.803Z,1.11
2019-01-04T18:39:00.574Z,1.12
2019-01-04T18:41:31.334Z,1.14
2019-01-04T18:44:02.113Z,1.08
2019-01-04T18:46:32.908Z,1.13
2019-01-04T18:49:03.685Z,1.09
2019-01-04T18:51:34.465Z,1.09
2019-01-04T18:54:05.241Z,1.09
2019-01-04T18:56:36.041Z,1.15
2019-01-04T18:59:06.826Z,1.17
2019-01-04T19:01:37.590Z,1.14
2019-01-04T19:04:08.349Z,1.17
2019-01-04T19:06:39.110Z,1.24
2019-01-04T19:09:09.907Z,1.18
2019-01-04T19:11:40.707Z,1.19
2019-01-04T19:14:11.492Z,1.20
2019-01-04T19:16:42.262Z,1.21
2019-01-04T19:19:13.047Z,1.20
2019-01-04T19:21:43.807Z,1.18
2019-01-04T19:24:14.608Z,1.16
2019-01-04T19:26:45.341Z,1.14
2019-01-04T19:29:16.191Z,1.19
2019-01-04T19:31:46.959Z,1.15
2019-01-04T19:34:17.733Z,1.17
2019-01-04T19:36:49.595Z,1.18
2019-01-04T19:39:20.365Z,1.17
2019-01-04T19:41:51.173Z,1.21
2019-01-04T19:44:21.937Z,1.13
2019-01-04T19:46:52.714Z,1.11
2019-01-04T19:49:23.476Z,1.13
2019-01-04T19:51:54.245Z,1.13
2019-01-04T19:54:24.999Z,1.22
2019-01-04T19:56:55.773Z,1.13
2019-01-04T19:59:26.553Z,1.15
2019-01-04T20:01:57.323Z,1.13
2019-01-04T20:04:28.108Z,1.15
2019-01-04T20:07:25.607Z,1.20
2019-01-04T20:10:46.097Z,1.18
2019-01-04T20:13:57.819Z,1.21
2019-01-04T20:16:51.144Z,1.21
2019-01-04T20:19:23.817Z,1.20
2019-01-04T20:22:08.329Z,1.23
2019-01-04T20:24:57.502Z,1.20
2019-01-04T20:27:40.171Z,1.21
2019-01-04T20:30:29.788Z,1.23
2019-01-04T20:33:20.653Z,1.26
2019-01-04T20:35:59.335Z,1.24
2019-01-04T20:38:48.777Z,1.27
2019-01-04T20:41:27.409Z,1.26
2019-01-04T20:44:05.948Z,1.22
2019-01-04T20:46:41.219Z,1.24
2019-01-04T20:49:25.905Z,1.25
2019-01-04T20:51:58.596Z,1.30
2019-01-04T20:54:31.345Z,1.26
2019-01-04T20:57:07.074Z,1.25
2019-01-04T20:59:42.333Z,1.23
2019-01-04T21:02:33.209Z,1.31
2019-01-04T21:05:15.668Z,1.31
2019-01-04T21:07:48.515Z,1.36
2019-01-04T21:10:33.030Z,1.36
2019-01-04T21:13:05.738Z,1.36
2019-01-04T21:15:50.519Z,1.36
2019-01-04T21:18:40.023Z,1.40
2019-01-04T21:21:12.705Z,1.41
2019-01-04T21:24:01.789Z,1.35
2019-01-04T21:26:37.381Z,1.40
2019-01-04T21:29:10.066Z,1.36
2019-01-04T21:31:45.795Z,1.44
2019-01-04T21:34:34.958Z,1.49
2019-01-04T21:37:10.609Z,1.47
2019-01-04T21:39:43.291Z,1.52
2019-01-04T21:42:32.578Z,1.50
2019-01-04T21:45:24.392Z,1.57
2019-01-04T21:48:12.428Z,1.53
2019-01-04T21:50:45.095Z,1.55
2019-01-04T21:53:36.235Z,1.56
2019-01-04T21:56:11.621Z,1.56
2019-01-04T21:58:45.030Z,1.57
2019-01-04T22:01:26.725Z,1.59
2019-01-04T22:04:14.459Z,1.62
2019-01-04T22:07:05.843Z,1.65
2019-01-04T22:09:44.597Z,1.63
2019-01-04T22:12:20.197Z,1.65
2019-01-04T22:15:09.850Z,1.66
2019-01-04T22:18:00.629Z,1.65
2019-01-04T22:20:49.683Z,1.66
2019-01-04T22:23:35.013Z,1.66
2019-01-04T22:26:07.744Z,1.69
2019-01-04T22:28:43.399Z,1.68
2019-01-04T22:31:18.983Z,1.69
2019-01-04T22:33:51.649Z,1.68
2019-01-04T22:36:30.119Z,1.70
2019-01-04T22:39:14.620Z,1.72
2019-01-04T22:41:53.158Z,1.73
2019-01-04T22:44:25.818Z,1.74
2019-01-04T22:46:58.508Z,1.78
2019-01-04T22:49:31.172Z,1.75
2019-01-04T22:52:03.867Z,1.78
2019-01-04T22:54:36.531Z,1.66
2019-01-04T22:57:14.810Z,1.74
2019-01-04T22:59:50.277Z,1.74
2019-01-04T23:02:39.321Z,1.79
2019-01-04T23:05:23.907Z,1.79
2019-01-04T23:08:02.546Z,1.78
2019-01-04T23:10:41.204Z,1.74
2019-01-04T23:13:23.134Z,1.74
2019-01-04T23:16:04.867Z,1.75
2019-01-04T23:18:53.900Z,1.74
2019-01-04T23:21:57.626Z,1.77
2019-01-04T23:24:30.301Z,1.68
2019-01-04T23:27:11.901Z,1.73
2019-01-04T23:29:44.569Z,1.76
2019-01-04T23:32:19.796Z,1.74
2019-01-04T23:34:55.215Z,1.79
2019-01-04T23:37:42.714Z,1.80
2019-01-04T23:40:15.370Z,1.77
2019-01-04T23:42:57.034Z,1.79
2019-01-04T23:45:47.786Z,1.79
2019-01-04T23:48:26.798Z,1.79
2019-01-04T23:51:16.237Z,1.87
2019-01-04T23:54:07.250Z,1.88
2019-01-04T23:56:51.854Z,1.86
2019-01-04T23:59:41.061Z,1.87
